Time;durP1;ratioP1;P1;durP2;ratioP2;P2;SDS_P1;SDS_P2;PMS_P1;PMS_P2;Temp;Humidity;BMP_temperature;BMP_pressure;BME280_temperature;BME280_humidity;BME280_pressure;Samples;Min_cycle;Max_cycle;Signal;HPM_P1;HPM_P2
2023/01/19 00:10:56;;;;;;;2.70;0.95;;;3.20;99.90;;;;;;6309583;22;20023;-96
2023/01/19 00:13:22;;;;;;;1.60;0.90;;;3.10;99.90;;;;;;6261414;22;20084;-96
2023/01/19 00:15:47;;;;;;;1.93;0.90;;;3.10;99.90;;;;;;6259226;22;20106;-96
2023/01/19 00:23:51;;;;;;;2.63;0.85;;;3.10;99.90;;;;;;6310222;22;20027;-92
2023/01/19 00:26:20;;;;;;;4.18;0.80;;;3.10;99.90;;;;;;6263234;22;20440;-95
2023/01/19 00:28:48;;;;;;;3.17;0.70;;;3.10;99.90;;;;;;6239752;22;20098;-94
2023/01/19 00:31:20;;;;;;;1.67;0.63;;;3.10;99.90;;;;;;6263317;22;20015;-91
2023/01/19 00:36:21;;;;;;;3.08;0.75;;;3.00;99.90;;;;;;6285690;22;20019;-91
2023/01/19 00:38:49;;;;;;;2.65;0.80;;;3.10;99.90;;;;;;6232369;22;20534;-94
2023/01/19 00:41:16;;;;;;;2.58;0.88;;;3.10;99.90;;;;;;6246294;22;20423;-91
2023/01/19 00:43:42;;;;;;;2.05;0.90;;;3.10;99.90;;;;;;6231592;22;20020;-92
2023/01/19 00:46:07;;;;;;;1.90;0.70;;;3.10;99.90;;;;;;6226308;22;20019;-94
2023/01/19 00:48:57;;;;;;;2.20;0.77;;;3.00;99.90;;;;;;6251569;22;20314;-91
2023/01/19 00:51:24;;;;;;;1.38;0.60;;;3.00;99.90;;;;;;6251207;22;20023;-91
2023/01/19 00:53:53;;;;;;;2.47;0.63;;;3.00;99.90;;;;;;6252153;22;20026;-95
2023/01/19 00:56:18;;;;;;;2.55;1.10;;;3.00;99.90;;;;;;6226025;22;20012;-95
2023/01/19 00:58:44;;;;;;;1.90;0.90;;;3.00;99.90;;;;;;6251187;22;20079;-95
2023/01/19 01:01:11;;;;;;;2.28;0.90;;;3.00;99.90;;;;;;6226210;22;20016;-92
2023/01/19 01:04:33;;;;;;;2.72;0.68;;;2.90;99.90;;;;;;6251859;22;20012;-94
2023/01/19 01:38:06;;;;;;;2.15;0.55;;;3.10;99.90;;;;;;6317636;22;20391;-91
2023/01/19 01:40:34;;;;;;;1.20;0.35;;;3.10;99.90;;;;;;6237893;22;20039;-88
2023/01/19 01:43:03;;;;;;;0.60;0.30;;;3.20;99.90;;;;;;6239464;22;20526;-89
2023/01/19 01:45:39;;;;;;;1.63;0.30;;;3.20;99.90;;;;;;6264290;22;20016;-95
2023/01/19 01:48:29;;;;;;;0.95;0.20;;;3.20;99.90;;;;;;6264437;22;20340;-91
2023/01/19 02:29:46;;;;;;;1.48;0.60;;;3.20;99.90;;;;;;6317395;22;20019;-96
2023/01/19 02:32:32;;;;;;;2.60;0.70;;;3.20;99.90;;;;;;6265388;22;20054;-92
2023/01/19 02:34:58;;;;;;;1.60;0.68;;;3.20;99.90;;;;;;6266988;22;20011;-92
2023/01/19 02:42:56;;;;;;;1.80;0.80;;;3.10;99.90;;;;;;6326109;22;20023;-91
2023/01/19 02:45:22;;;;;;;3.42;0.80;;;3.10;99.90;;;;;;6261882;22;20015;-92
2023/01/19 02:50:48;;;;;;;2.53;1.00;;;3.10;99.90;;;;;;6311820;22;20080;-92
2023/01/19 02:53:52;;;;;;;2.03;0.80;;;3.10;99.90;;;;;;6264840;22;20023;-92
2023/01/19 02:56:35;;;;;;;3.83;1.00;;;3.10;99.90;;;;;;6260946;22;20019;-95
2023/01/19 02:59:26;;;;;;;2.42;0.85;;;3.10;99.90;;;;;;6261978;22;20023;-94
2023/01/19 03:12:32;;;;;;;2.58;0.73;;;3.00;99.90;;;;;;6308361;22;20023;-90
2023/01/19 03:15:27;;;;;;;4.05;0.75;;;3.00;99.90;;;;;;6255949;22;20023;-91
2023/01/19 03:38:38;;;;;;;2.33;0.90;;;2.90;99.90;;;;;;6280502;22;20340;-96
2023/01/19 03:41:10;;;;;;;1.75;0.80;;;2.80;99.90;;;;;;6229813;22;20349;-92
2023/01/19 03:43:41;;;;;;;3.30;0.90;;;2.80;99.90;;;;;;6226467;22;20019;-93
2023/01/19 03:46:21;;;;;;;2.30;0.93;;;2.80;99.90;;;;;;6231705;22;20023;-96
2023/01/19 03:51:55;;;;;;;2.38;0.90;;;2.80;99.90;;;;;;6242997;22;20159;-94
2023/01/19 03:54:21;;;;;;;1.70;0.70;;;2.80;99.90;;;;;;6224944;22;20016;-90
2023/01/19 03:56:56;;;;;;;1.98;0.88;;;2.80;99.90;;;;;;6225606;22;20094;-91
2023/01/19 03:59:22;;;;;;;2.50;0.70;;;2.80;99.90;;;;;;6228929;22;20051;-93
2023/01/19 04:01:48;;;;;;;2.22;0.77;;;2.80;99.90;;;;;;6201430;22;20015;-91
2023/01/19 04:04:17;;;;;;;2.70;0.90;;;2.80;99.90;;;;;;6226470;22;20015;-90
2023/01/19 04:06:43;;;;;;;3.40;0.80;;;2.80;99.90;;;;;;6226449;22;20019;-89
2023/01/19 04:09:09;;;;;;;3.17;1.05;;;2.80;99.90;;;;;;6201769;22;20031;-93
2023/01/19 04:11:35;;;;;;;1.97;0.90;;;2.80;99.90;;;;;;6226777;22;20016;-94
2023/01/19 04:42:56;;;;;;;2.55;0.93;;;2.90;99.90;;;;;;6308564;22;20027;-90
2023/01/19 04:55:44;;;;;;;3.10;0.93;;;2.80;99.90;;;;;;6315354;22;20026;-90
2023/01/19 05:28:08;;;;;;;2.53;0.73;;;2.70;99.90;;;;;;6309059;22;20041;-93
2023/01/19 05:30:34;;;;;;;3.92;0.98;;;2.70;99.90;;;;;;6256794;22;20026;-93
2023/01/19 05:32:59;;;;;;;3.30;1.05;;;2.70;99.90;;;;;;6256597;22;20098;-93
2023/01/19 05:35:25;;;;;;;1.90;0.77;;;2.70;99.90;;;;;;6256625;22;20019;-96
2023/01/19 05:37:51;;;;;;;2.73;0.87;;;2.70;99.90;;;;;;6231130;22;20011;-96
2023/01/19 05:40:17;;;;;;;2.77;0.70;;;2.70;99.90;;;;;;6256446;22;20172;-96
2023/01/19 05:42:42;;;;;;;2.92;0.80;;;2.80;99.90;;;;;;6256201;22;20348;-95
2023/01/19 05:45:08;;;;;;;1.70;0.60;;;2.80;99.90;;;;;;6256506;22;20093;-94
2023/01/19 05:47:34;;;;;;;1.83;0.60;;;2.80;99.90;;;;;;6257613;22;20016;-96
2023/01/19 06:00:22;;;;;;;4.20;0.50;;;2.90;99.90;;;;;;6278084;22;20085;-94
2023/01/19 06:02:48;;;;;;;1.17;0.35;;;2.90;99.90;;;;;;6225811;22;20020;-93
2023/01/19 06:05:14;;;;;;;4.27;0.37;;;2.90;99.90;;;;;;6225679;22;20008;-95
2023/01/19 06:07:40;;;;;;;1.55;0.15;;;3.00;99.90;;;;;;6225824;22;20440;-94
2023/01/19 06:10:06;;;;;;;0.30;0.10;;;3.00;99.90;;;;;;6225383;22;20100;-94
2023/01/19 06:12:32;;;;;;;1.38;0.30;;;3.00;99.90;;;;;;6200643;22;20024;-94
2023/01/19 06:40:58;;;;;;;0.55;0.10;;;3.30;99.90;;;;;;6308714;22;20019;-94
2023/01/19 06:43:44;;;;;;;1.83;0.20;;;3.40;99.90;;;;;;6256912;22;20023;-93
2023/01/19 06:46:13;;;;;;;1.88;0.13;;;3.40;99.90;;;;;;6228820;22;20019;-93
2023/01/19 06:48:39;;;;;;;1.48;0.17;;;3.30;99.90;;;;;;6255498;22;20015;-92
2023/01/19 06:51:05;;;;;;;0.20;0.10;;;3.30;99.90;;;;;;6257376;22;20015;-93
2023/01/19 06:53:32;;;;;;;0.05;0.05;;;3.30;99.90;;;;;;6259790;22;20423;-96
2023/01/19 06:56:01;;;;;;;2.13;0.30;;;3.30;99.90;;;;;;6264986;22;20015;-89
2023/01/19 07:33:05;;;;;;;1.10;0.25;;;3.20;99.90;;;;;;6308751;22;20053;-92
2023/01/19 07:36:00;;;;;;;;;;;;;;;;;;;;;
2023/01/19 07:38:35;;;;;;;1.83;0.40;;;3.20;99.90;;;;;;6263768;22;20023;-95
2023/01/19 07:41:13;;;;;;;2.75;0.32;;;3.30;99.90;;;;;;6232230;22;20019;-90
2023/01/19 07:43:38;;;;;;;;;;;3.30;99.90;;;;;;6257654;22;20340;-95
2023/01/19 07:46:09;;;;;;;2.03;0.20;;;3.30;99.90;;;;;;6257241;22;19915;-95
2023/01/19 07:48:34;;;;;;;0.57;0.10;;;3.20;99.90;;;;;;6257480;22;20039;-89
2023/01/19 07:51:04;;;;;;;2.28;0.20;;;3.30;99.90;;;;;;6257010;22;20084;-87
2023/01/19 07:53:30;;;;;;;3.33;0.30;;;3.30;99.90;;;;;;6237107;22;20054;-91
2023/01/19 07:56:17;;;;;;;3.13;0.20;;;3.20;99.90;;;;;;6236619;22;20011;-93
2023/01/19 07:59:23;;;;;;;5.00;0.45;;;3.30;99.90;;;;;;6236729;22;20015;-93
2023/01/19 08:02:05;;;;;;;;;;;;;;;;;;;;;
2023/01/19 08:04:34;;;;;;;2.58;0.25;;;3.40;99.90;;;;;;6282432;22;20491;-96
2023/01/19 08:07:28;;;;;;;4.88;0.55;;;3.40;99.90;;;;;;6257231;22;20019;-94
2023/01/19 08:09:57;;;;;;;1.10;0.30;;;3.40;99.90;;;;;;6257502;22;20436;-90
2023/01/19 08:12:45;;;;;;;1.85;0.40;;;3.40;99.90;;;;;;6258153;22;20432;-96
2023/01/19 08:15:30;;;;;;;2.42;0.50;;;3.40;99.90;;;;;;6257528;22;20068;-96
2023/01/19 08:17:58;;;;;;;2.83;0.28;;;3.50;99.90;;;;;;6257192;22;20022;-91
2023/01/19 08:20:35;;;;;;;1.77;0.30;;;3.40;99.90;;;;;;6257633;22;20317;-94
2023/01/19 08:23:01;;;;;;;1.33;0.50;;;3.50;99.90;;;;;;6233299;22;20026;-92
2023/01/19 08:25:53;;;;;;;6.32;0.30;;;3.40;99.90;;;;;;6257342;22;20460;-95
2023/01/19 08:28:19;;;;;;;0.73;0.10;;;3.40;99.90;;;;;;6252344;22;20023;-96
2023/01/19 08:30:52;;;;;;;1.98;0.22;;;3.40;99.90;;;;;;6259164;22;20047;-91
2023/01/19 08:33:23;;;;;;;4.03;0.45;;;3.40;99.90;;;;;;6259107;22;20075;-95
2023/01/19 08:35:54;;;;;;;3.63;0.60;;;3.40;99.90;;;;;;6261270;22;20015;-90
2023/01/19 08:38:20;;;;;;;3.55;0.40;;;3.40;99.90;;;;;;6262394;22;20023;-90
2023/01/19 08:40:47;;;;;;;3.63;0.63;;;3.50;99.90;;;;;;6259302;22;20075;-96
2023/01/19 08:43:14;;;;;;;;;;;3.50;99.90;;;;;;6259985;22;20019;-90
2023/01/19 08:45:51;;;;;;;3.33;0.32;;;3.60;99.90;;;;;;6260187;22;19949;-90
2023/01/19 08:48:21;;;;;;;4.03;0.68;;;3.60;99.90;;;;;;6260523;22;20022;-90
2023/01/19 08:50:50;;;;;;;1.40;0.17;;;3.60;99.90;;;;;;6258853;22;20026;-90
2023/01/19 08:53:17;;;;;;;5.57;0.40;;;3.60;99.90;;;;;;6259610;22;19999;-94
2023/01/19 08:55:43;;;;;;;2.58;0.40;;;3.70;99.90;;;;;;6262660;22;20344;-93
2023/01/19 08:58:10;;;;;;;6.15;0.40;;;3.70;99.90;;;;;;6293975;22;20019;-90
2023/01/19 09:00:37;;;;;;;5.67;0.63;;;3.80;99.90;;;;;;6233971;22;20019;-93
2023/01/19 09:03:05;;;;;;;1.35;0.20;;;3.90;99.90;;;;;;6257010;22;20011;-96
2023/01/19 09:05:36;;;;;;;4.13;0.20;;;4.00;99.90;;;;;;6282423;22;20015;-94
2023/01/19 09:08:20;;;;;;;2.17;0.30;;;4.00;99.90;;;;;;6256995;22;20051;-94
2023/01/19 09:10:50;;;;;;;2.47;0.40;;;4.10;99.90;;;;;;6259818;22;20019;-96
2023/01/19 09:13:17;;;;;;;1.95;0.40;;;4.20;99.90;;;;;;6258089;22;20513;-95
2023/01/19 09:15:44;;;;;;;4.10;0.30;;;4.20;99.90;;;;;;6260473;22;20042;-96
2023/01/19 09:26:03;;;;;;;4.97;0.60;;;4.30;99.90;;;;;;6327555;22;20023;-92
2023/01/19 09:28:36;;;;;;;1.85;0.40;;;4.20;99.90;;;;;;6272803;22;20023;-94
2023/01/19 09:38:48;;;;;;;2.92;0.30;;;4.10;99.90;;;;;;6291001;22;20030;-95
2023/01/19 09:41:43;;;;;;;3.67;0.50;;;4.00;99.90;;;;;;6241720;22;20016;-93
2023/01/19 09:54:39;;;;;;;2.78;0.35;;;3.80;99.90;;;;;;6317897;22;20019;-94
2023/01/19 09:57:13;;;;;;;3.67;0.38;;;3.70;99.90;;;;;;6294851;22;20061;-89
2023/01/19 09:59:42;;;;;;;3.55;0.40;;;3.80;99.90;;;;;;6274427;22;20023;-91
2023/01/19 11:13:44;;;;;;;3.13;0.47;;;5.20;99.90;;;;;;6308796;22;20047;-95
2023/01/19 11:16:46;;;;;;;3.35;0.40;;;5.20;99.90;;;;;;6258592;22;20055;-93
2023/01/19 11:19:29;;;;;;;1.95;0.22;;;5.30;99.90;;;;;;6260783;22;20321;-96
2023/01/19 11:22:21;;;;;;;4.03;0.30;;;5.30;99.90;;;;;;6235302;22;20019;-95
2023/01/19 11:24:47;;;;;;;2.78;0.40;;;5.30;99.90;;;;;;6256230;22;20067;-93
2023/01/19 11:27:19;;;;;;;5.00;0.28;;;5.30;99.90;;;;;;6257393;22;20019;-93
2023/01/19 11:29:56;;;;;;;4.50;0.47;;;5.40;99.90;;;;;;6255907;22;20448;-95
2023/01/19 11:32:22;;;;;;;2.00;0.43;;;5.40;99.90;;;;;;6258237;22;20526;-95
2023/01/19 11:34:48;;;;;;;5.13;0.47;;;5.40;99.90;;;;;;6231981;22;20011;-94
2023/01/19 11:37:17;;;;;;;3.97;0.30;;;5.50;99.90;;;;;;6256406;22;20023;-93
2023/01/19 11:39:49;;;;;;;3.83;0.50;;;5.50;99.90;;;;;;6257033;22;20023;-92
2023/01/19 11:42:18;;;;;;;2.80;0.30;;;5.50;99.90;;;;;;6256229;22;20023;-94
2023/01/19 11:44:47;;;;;;;6.18;0.50;;;5.50;99.90;;;;;;6257371;22;20019;-94
2023/01/19 11:47:40;;;;;;;3.88;0.40;;;5.50;99.90;;;;;;6258659;22;20520;-93
2023/01/19 11:50:14;;;;;;;1.15;0.20;;;5.50;99.90;;;;;;6260460;22;20017;-95
2023/01/19 11:52:54;;;;;;;2.63;0.20;;;5.50;99.90;;;;;;6256942;22;20372;-96
2023/01/19 12:05:45;;;;;;;3.00;0.85;;;5.30;99.90;;;;;;6308055;22;20353;-92
2023/01/19 12:08:29;;;;;;;4.90;0.30;;;5.30;99.90;;;;;;6280905;22;20019;-91
2023/01/19 12:10:58;;;;;;;4.68;0.43;;;5.30;99.90;;;;;;6282177;22;20022;-94
2023/01/19 12:13:26;;;;;;;2.22;0.22;;;5.30;99.90;;;;;;6280508;22;20437;-94
2023/01/19 12:16:17;;;;;;;1.15;0.35;;;5.20;99.90;;;;;;6280643;22;20076;-91
2023/01/19 12:18:47;;;;;;;2.47;0.50;;;5.20;99.90;;;;;;6280967;22;20015;-93
2023/01/19 12:21:13;;;;;;;4.03;0.65;;;5.10;99.90;;;;;;6282512;22;20019;-94
2023/01/19 12:23:52;;;;;;;1.90;0.60;;;5.00;99.90;;;;;;6282616;22;20015;-95
2023/01/19 12:26:34;;;;;;;4.63;0.47;;;5.00;99.90;;;;;;6282226;22;20019;-92
2023/01/19 12:29:17;;;;;;;1.48;0.50;;;4.90;99.90;;;;;;6282600;22;20060;-93
2023/01/19 12:32:20;;;;;;;1.25;0.50;;;4.90;99.90;;;;;;6282611;22;20019;-92
2023/01/19 12:34:54;;;;;;;1.17;0.68;;;4.90;99.90;;;;;;6282994;22;20015;-93
2023/01/19 12:37:39;;;;;;;4.05;0.60;;;4.90;99.90;;;;;;6282644;22;20019;-92
2023/01/19 12:40:20;;;;;;;3.50;0.68;;;5.00;99.90;;;;;;6282094;22;20383;-92
2023/01/19 12:43:05;;;;;;;4.93;0.63;;;5.00;99.90;;;;;;6282374;22;20016;-94
2023/01/19 12:45:36;;;;;;;2.03;0.50;;;5.10;99.90;;;;;;6282917;22;20022;-92
2023/01/19 12:53:19;;;;;;;4.43;0.40;;;5.30;99.90;;;;;;6314576;22;20518;-92
2023/01/19 12:55:56;;;;;;;2.25;0.77;;;5.30;99.90;;;;;;6257154;22;20022;-95
2023/01/19 12:58:24;;;;;;;3.97;1.05;;;5.30;99.90;;;;;;6257172;22;20030;-91
2023/01/19 13:01:12;;;;;;;3.83;0.50;;;5.30;99.90;;;;;;6255816;22;20055;-95
2023/01/19 13:04:08;;;;;;;2.17;0.28;;;5.30;99.90;;;;;;6256177;22;20090;-93
2023/01/19 13:06:45;;;;;;;1.63;0.25;;;5.20;99.90;;;;;;6257522;22;20077;-94
2023/01/19 13:09:32;;;;;;;2.55;0.32;;;5.20;99.90;;;;;;6259334;22;20019;-92
2023/01/19 13:12:13;;;;;;;1.45;0.40;;;5.10;99.90;;;;;;6283940;22;20034;-94
2023/01/19 13:14:40;;;;;;;4.00;0.55;;;5.00;99.90;;;;;;6258842;22;20062;-90
2023/01/19 13:17:35;;;;;;;0.80;0.20;;;5.00;99.90;;;;;;6256835;22;20313;-94
2023/01/19 13:20:30;;;;;;;2.10;0.43;;;4.90;99.90;;;;;;6230295;22;20046;-95
2023/01/19 13:23:22;;;;;;;2.70;0.65;;;4.90;99.90;;;;;;6256599;22;20094;-94
2023/01/19 13:26:04;;;;;;;9.35;5.28;;;4.80;99.90;;;;;;6256396;22;20059;-90
2023/01/19 13:28:38;;;;;;;4.53;1.73;;;4.80;99.90;;;;;;6256362;22;20317;-93
2023/01/19 15:38:03;;;;;;;0.68;0.30;;;3.30;99.90;;;;;;6283752;22;20024;-87
2023/01/19 15:40:30;;;;;;;2.43;0.30;;;3.30;99.90;;;;;;6261243;22;20019;-94
2023/01/19 15:42:56;;;;;;;2.60;0.85;;;3.20;99.90;;;;;;6288970;22;20019;-87
2023/01/19 15:45:59;;;;;;;0.93;0.20;;;3.20;99.90;;;;;;6315974;22;20042;-87
2023/01/19 15:48:30;;;;;;;0.98;0.13;;;3.20;99.90;;;;;;6295466;22;20069;-95
2023/01/19 15:50:55;;;;;;;2.85;0.50;;;3.10;99.90;;;;;;6282922;22;20011;-94
2023/01/19 15:53:26;;;;;;;1.23;0.32;;;3.10;99.90;;;;;;6257108;22;20022;-89
2023/01/19 15:55:56;;;;;;;0.88;0.30;;;3.10;99.90;;;;;;6286839;22;20025;-87
2023/01/19 15:58:23;;;;;;;1.88;0.40;;;3.00;99.90;;;;;;6260880;22;20070;-96
2023/01/19 16:00:56;;;;;;;4.63;0.50;;;3.00;99.90;;;;;;6260879;22;20479;-94
2023/01/19 16:03:24;;;;;;;1.80;0.60;;;3.00;99.90;;;;;;6308405;22;20456;-88
2023/01/19 16:05:50;;;;;;;2.03;0.30;;;2.90;99.90;;;;;;6281329;22;20022;-86
2023/01/19 16:08:16;;;;;;;1.73;0.80;;;2.80;99.90;;;;;;6281452;22;20023;-85
2023/01/19 16:10:42;;;;;;;3.53;0.73;;;2.70;99.90;;;;;;6256741;22;20108;-93
2023/01/19 16:13:09;;;;;;;2.75;0.82;;;2.70;99.90;;;;;;6282779;22;20246;-86
2023/01/19 16:15:37;;;;;;;3.58;1.10;;;2.70;99.90;;;;;;6255941;22;20356;-86
2023/01/19 16:18:04;;;;;;;3.70;1.10;;;2.70;99.90;;;;;;6256014;22;20094;-86
2023/01/19 16:20:29;;;;;;;;;;;2.70;99.90;;;;;;6256609;22;20019;-88
2023/01/19 16:22:55;;;;;;;1.48;0.30;;;2.60;99.90;;;;;;6281491;22;19967;-86
2023/01/19 16:25:22;;;;;;;0.73;0.30;;;2.60;99.90;;;;;;6256293;22;20023;-85
2023/01/19 16:28:03;;;;;;;4.78;1.67;;;2.50;99.90;;;;;;6262301;22;20019;-86
2023/01/19 16:30:30;;;;;;;5.88;1.60;;;2.50;99.90;;;;;;6232097;22;20019;-86
2023/01/19 16:32:56;;;;;;;1.63;0.50;;;2.50;99.90;;;;;;6258173;22;20043;-96
2023/01/19 16:35:21;;;;;;;4.88;1.88;;;2.50;99.90;;;;;;6256814;22;20065;-87
2023/01/19 16:37:50;;;;;;;3.10;1.42;;;2.50;99.90;;;;;;6270427;22;20060;-88
2023/01/19 16:42:51;;;;;;;1.65;0.90;;;2.40;99.90;;;;;;6270053;22;20030;-85
2023/01/19 16:45:17;;;;;;;1.42;0.70;;;2.40;99.90;;;;;;6225726;22;20012;-86
2023/01/19 16:47:45;;;;;;;2.73;1.03;;;2.40;99.90;;;;;;6250742;22;20463;-84
2023/01/19 16:50:14;;;;;;;3.85;1.35;;;2.40;99.90;;;;;;6283240;22;20012;-85
2023/01/19 16:52:40;;;;;;;4.25;1.58;;;2.40;99.90;;;;;;6278989;22;20030;-88
2023/01/19 16:55:10;;;;;;;3.60;1.23;;;2.40;99.90;;;;;;6252766;22;20091;-93
2023/01/19 16:57:38;;;;;;;3.72;1.33;;;2.30;99.90;;;;;;6254467;22;20075;-89
2023/01/19 17:00:08;;;;;;;3.15;1.05;;;2.30;99.90;;;;;;6285762;22;20015;-85
2023/01/19 17:02:34;;;;;;;6.28;1.00;;;2.30;99.90;;;;;;6263061;22;20042;-86
2023/01/19 17:05:00;;;;;;;8.43;2.10;;;2.40;99.90;;;;;;6259331;22;20019;-92
2023/01/19 17:07:26;;;;;;;5.07;2.10;;;2.30;99.90;;;;;;6282345;22;20015;-84
2023/01/19 17:09:52;;;;;;;4.20;1.80;;;2.30;99.90;;;;;;6260181;22;20020;-86
2023/01/19 17:12:18;;;;;;;4.82;1.58;;;2.40;99.90;;;;;;6259715;22;20075;-86
2023/01/19 17:14:46;;;;;;;2.73;1.30;;;2.40;99.90;;;;;;6282024;22;20019;-86
2023/01/19 17:17:15;;;;;;;4.50;1.83;;;2.40;99.90;;;;;;6284821;22;20075;-84
2023/01/19 17:19:40;;;;;;;6.05;1.40;;;2.40;99.90;;;;;;6256309;22;20023;-91
2023/01/19 17:22:06;;;;;;;1.67;0.70;;;2.40;99.90;;;;;;6288003;22;20019;-89
2023/01/19 17:24:32;;;;;;;2.30;0.90;;;2.40;99.90;;;;;;6258062;22;20016;-86
2023/01/19 17:26:58;;;;;;;8.43;5.20;;;2.40;99.90;;;;;;6284278;22;20503;-84
2023/01/19 17:29:23;;;;;;;3.53;1.20;;;2.40;99.90;;;;;;6283795;22;20086;-95
2023/01/19 17:31:53;;;;;;;2.63;1.00;;;2.40;99.90;;;;;;6290895;22;20043;-87
2023/01/19 17:34:19;;;;;;;3.65;1.00;;;2.40;99.90;;;;;;6234695;22;20026;-89
2023/01/19 17:36:49;;;;;;;3.08;1.08;;;2.30;99.90;;;;;;6262263;22;20098;-91
2023/01/19 17:39:17;;;;;;;3.25;0.95;;;2.40;99.90;;;;;;6239776;22;20046;-89
2023/01/19 17:41:45;;;;;;;2.72;0.75;;;2.30;99.90;;;;;;6237713;22;20039;-89
2023/01/19 17:44:10;;;;;;;1.90;0.60;;;2.30;99.90;;;;;;6238190;22;20075;-89
2023/01/19 17:46:37;;;;;;;3.70;0.75;;;2.30;99.90;;;;;;6256525;22;20038;-90
2023/01/19 17:49:05;;;;;;;2.63;0.50;;;2.30;99.90;;;;;;6228719;22;20019;-94
2023/01/19 17:51:34;;;;;;;7.38;2.05;;;2.30;99.90;;;;;;6260427;22;20161;-91
2023/01/19 17:54:00;;;;;;;6.60;1.45;;;2.30;99.90;;;;;;6231191;22;20095;-92
2023/01/19 17:56:28;;;;;;;8.37;2.67;;;2.30;99.90;;;;;;6228707;22;20015;-90
2023/01/19 17:58:58;;;;;;;2.47;0.70;;;2.30;99.90;;;;;;6226053;22;20014;-92
2023/01/19 18:01:26;;;;;;;2.35;0.55;;;2.20;99.90;;;;;;6204029;22;20027;-93
2023/01/19 18:03:52;;;;;;;3.35;0.65;;;2.20;99.90;;;;;;6256590;22;20046;-91
2023/01/19 18:06:18;;;;;;;4.40;1.10;;;2.20;99.90;;;;;;6230422;22;20460;-91
2023/01/19 18:08:45;;;;;;;3.93;1.03;;;2.20;99.90;;;;;;6233782;22;20040;-89
2023/01/19 18:11:13;;;;;;;8.85;3.15;;;2.20;99.90;;;;;;6208481;22;20341;-95
2023/01/19 18:13:40;;;;;;;4.50;1.70;;;2.10;99.90;;;;;;6236351;22;20022;-89
2023/01/19 18:16:12;;;;;;;1.52;0.60;;;2.10;99.90;;;;;;6263485;22;20073;-91
2023/01/19 18:18:43;;;;;;;2.97;0.90;;;2.20;99.90;;;;;;6261394;22;20083;-91
2023/01/19 18:21:14;;;;;;;4.03;1.70;;;2.10;99.90;;;;;;6262366;22;20019;-87
2023/01/19 18:23:44;;;;;;;3.70;1.60;;;2.10;99.90;;;;;;6240285;22;20023;-90
2023/01/19 18:26:19;;;;;;;10.20;5.15;;;2.10;99.90;;;;;;6241490;22;20063;-88
2023/01/19 18:28:45;;;;;;;11.45;5.68;;;2.10;99.90;;;;;;6264658;22;20022;-95
2023/01/19 18:31:13;;;;;;;7.50;3.67;;;2.10;99.90;;;;;;6260757;22;20020;-91
2023/01/19 18:33:43;;;;;;;6.57;3.42;;;2.10;99.90;;;;;;6235524;22;20011;-95
2023/01/19 18:36:12;;;;;;;5.53;2.17;;;2.10;99.90;;;;;;6263338;22;20055;-94
2023/01/19 18:38:38;;;;;;;4.10;1.10;;;2.10;99.90;;;;;;6260549;22;20015;-88
2023/01/19 18:41:09;;;;;;;2.63;0.77;;;2.10;99.90;;;;;;6236562;22;20053;-93
2023/01/19 18:43:34;;;;;;;3.58;1.52;;;2.00;99.90;;;;;;6228997;22;20019;-92
2023/01/19 18:46:01;;;;;;;5.75;1.83;;;2.00;99.90;;;;;;6260105;22;20071;-91
2023/01/19 18:48:27;;;;;;;4.90;1.73;;;2.00;99.90;;;;;;6265788;22;20015;-87
2023/01/19 18:51:26;;;;;;;2.97;1.00;;;2.00;99.90;;;;;;6234592;22;20054;-89
2023/01/19 18:53:52;;;;;;;5.78;2.17;;;1.90;99.90;;;;;;6261432;22;20022;-95
2023/01/19 18:56:18;;;;;;;6.07;2.17;;;1.80;99.90;;;;;;6263438;22;20016;-88
2023/01/19 18:58:43;;;;;;;7.33;3.07;;;1.80;99.90;;;;;;6267666;22;20000;-89
2023/01/19 19:01:34;;;;;;;6.93;2.47;;;1.70;99.90;;;;;;6236497;22;20016;-92
2023/01/19 19:04:01;;;;;;;5.45;1.92;;;1.70;99.90;;;;;;6233376;22;20030;-90
2023/01/19 19:06:27;;;;;;;7.63;2.63;;;1.60;99.90;;;;;;6232299;22;19999;-90
2023/01/19 19:08:55;;;;;;;11.00;5.43;;;1.70;99.90;;;;;;6258532;22;20023;-89
2023/01/19 19:11:26;;;;;;;7.70;2.95;;;1.60;99.90;;;;;;6236530;22;20054;-91
2023/01/19 19:16:29;;;;;;;5.82;2.28;;;1.60;99.90;;;;;;6321066;22;20019;-89
2023/01/19 19:19:00;;;;;;;5.03;1.52;;;1.60;99.90;;;;;;6294881;22;20023;-86
2023/01/19 19:21:35;;;;;;;12.40;4.15;;;1.60;99.90;;;;;;6265672;22;20012;-87
2023/01/19 19:24:02;;;;;;;7.90;3.38;;;1.60;99.90;;;;;;6293698;22;20050;-88
2023/01/19 19:26:28;;;;;;;;;;;1.60;99.90;;;;;;6241451;22;20464;-86
2023/01/19 19:28:54;;;;;;;5.93;2.67;;;1.60;99.90;;;;;;6267716;22;19930;-88
2023/01/19 19:31:21;;;;;;;6.88;2.42;;;1.60;99.90;;;;;;6269420;22;20341;-87
2023/01/19 19:33:49;;;;;;;14.57;5.43;;;1.60;99.90;;;;;;6260125;22;20057;-87
2023/01/19 19:36:15;;;;;;;13.00;5.25;;;1.60;99.90;;;;;;6256461;22;20090;-87
2023/01/19 19:38:43;;;;;;;8.57;4.40;;;1.60;99.90;;;;;;6258131;22;20019;-86
2023/01/19 19:41:11;;;;;;;9.23;3.60;;;1.60;99.90;;;;;;6267513;22;20015;-93
2023/01/19 19:43:37;;;;;;;8.02;3.50;;;1.60;99.90;;;;;;6267771;22;20019;-96
2023/01/19 19:46:06;;;;;;;5.75;2.00;;;1.60;99.90;;;;;;6285782;22;20012;-89
2023/01/19 19:48:32;;;;;;;5.68;1.73;;;1.50;99.90;;;;;;6287572;22;20015;-94
2023/01/19 19:51:10;;;;;;;4.68;1.60;;;1.50;99.90;;;;;;6287699;22;20015;-89
2023/01/19 19:53:39;;;;;;;6.60;4.32;;;1.50;99.90;;;;;;6264880;22;20015;-96
2023/01/19 19:56:09;;;;;;;2.70;1.00;;;1.60;99.90;;;;;;6264053;22;20137;-89
2023/01/19 19:58:37;;;;;;;2.42;0.82;;;1.60;99.90;;;;;;6265920;22;20015;-91
2023/01/19 20:01:14;;;;;;;4.35;2.20;;;1.60;99.90;;;;;;6264402;22;20019;-95
2023/01/19 20:03:40;;;;;;;6.57;3.40;;;1.60;99.90;;;;;;6259347;22;20348;-90
2023/01/19 20:06:09;;;;;;;2.92;0.75;;;1.60;99.90;;;;;;6264424;22;20311;-92
2023/01/19 20:08:36;;;;;;;4.30;1.90;;;1.60;99.90;;;;;;6258140;22;20015;-92
2023/01/19 20:11:11;;;;;;;11.18;3.65;;;1.60;99.90;;;;;;6258611;22;20445;-89
2023/01/19 20:13:38;;;;;;;22.85;7.55;;;1.60;99.90;;;;;;6258567;22;20015;-95
2023/01/19 20:16:08;;;;;;;36.08;10.95;;;1.60;99.90;;;;;;6257831;22;20554;-93
2023/01/19 20:18:39;;;;;;;18.08;7.50;;;1.50;99.90;;;;;;6259374;22;20098;-88
2023/01/19 20:21:14;;;;;;;14.73;5.55;;;1.50;99.90;;;;;;6288962;22;20015;-87
2023/01/19 20:23:40;;;;;;;8.07;3.95;;;1.50;99.90;;;;;;6241756;22;20019;-93
2023/01/19 20:26:08;;;;;;;10.20;4.70;;;1.50;99.90;;;;;;6269165;22;20015;-90
2023/01/19 20:28:37;;;;;;;8.20;2.97;;;1.40;99.90;;;;;;6295776;22;20258;-90
2023/01/19 20:31:17;;;;;;;5.82;2.30;;;1.50;99.90;;;;;;6295454;22;20006;-90
2023/01/19 20:33:45;;;;;;;5.60;2.15;;;1.50;99.90;;;;;;6272527;22;20019;-87
2023/01/19 20:36:12;;;;;;;5.85;1.67;;;1.50;99.90;;;;;;6297848;22;20015;-90
2023/01/19 20:38:38;;;;;;;5.15;1.27;;;1.50;99.90;;;;;;6273323;22;20019;-88
2023/01/19 20:41:15;;;;;;;5.78;1.40;;;1.50;99.90;;;;;;6271953;22;20011;-90
2023/01/19 20:43:41;;;;;;;3.53;1.17;;;1.50;99.90;;;;;;6250398;22;20043;-87
2023/01/19 20:46:16;;;;;;;4.45;0.98;;;1.50;99.90;;;;;;6298291;22;20015;-89
2023/01/19 20:48:56;;;;;;;3.65;1.48;;;1.50;99.90;;;;;;6300286;22;20034;-88
2023/01/19 20:51:25;;;;;;;1.95;0.80;;;1.50;99.90;;;;;;6299857;22;20063;-89
2023/01/19 20:53:53;;;;;;;2.40;1.20;;;1.60;99.90;;;;;;6269010;22;20454;-88
2023/01/19 20:56:18;;;;;;;2.63;0.85;;;1.50;99.90;;;;;;6270989;22;20015;-88
2023/01/19 20:58:46;;;;;;;3.50;1.40;;;1.50;99.90;;;;;;6274706;22;20045;-89
2023/01/19 21:03:47;;;;;;;10.45;3.20;;;1.50;99.90;;;;;;6327931;22;19914;-88
2023/01/19 21:06:15;;;;;;;6.72;2.47;;;1.50;99.90;;;;;;6321638;22;20019;-89
2023/01/19 21:08:43;;;;;;;6.53;2.90;;;1.50;99.90;;;;;;6270732;22;20015;-89
2023/01/19 21:11:09;;;;;;;7.78;2.53;;;1.50;99.90;;;;;;6320853;22;20023;-89
2023/01/19 21:13:44;;;;;;;6.78;2.10;;;1.50;99.90;;;;;;6323637;22;20063;-90
2023/01/19 21:21:24;;;;;;;5.13;2.08;;;1.50;99.90;;;;;;6295313;22;20019;-87
2023/01/19 21:23:52;;;;;;;11.27;3.38;;;1.50;99.90;;;;;;6270674;22;20019;-87
2023/01/19 21:26:21;;;;;;;6.35;2.70;;;1.50;99.90;;;;;;6294983;22;20018;-93
2023/01/19 21:28:48;;;;;;;6.53;2.10;;;1.50;99.90;;;;;;6270814;22;20043;-92
2023/01/19 21:31:15;;;;;;;3.72;1.60;;;1.50;99.90;;;;;;6291760;22;20019;-87
2023/01/19 21:33:42;;;;;;;6.05;1.60;;;1.50;99.90;;;;;;6263292;22;20023;-88
2023/01/19 21:36:12;;;;;;;;;;;1.50;99.90;;;;;;6291279;22;20012;-87
2023/01/19 21:38:38;;;;;;;5.30;1.80;;;1.50;99.90;;;;;;6273360;22;19964;-87
2023/01/19 21:41:11;;;;;;;4.00;1.52;;;1.50;99.90;;;;;;6239730;22;20045;-87
2023/01/19 21:43:39;;;;;;;3.92;1.88;;;1.50;99.90;;;;;;6258124;22;20081;-89
2023/01/19 21:48:45;;;;;;;5.30;1.80;;;1.50;99.90;;;;;;6323537;22;20023;-87
2023/01/19 21:51:11;;;;;;;5.82;2.10;;;1.50;99.90;;;;;;6296232;22;20030;-94
2023/01/19 21:53:37;;;;;;;4.33;1.80;;;1.40;99.90;;;;;;6292127;22;20063;-86
2023/01/19 21:56:15;;;;;;;6.60;2.07;;;1.40;99.90;;;;;;6295180;22;20019;-89
2023/01/19 21:58:41;;;;;;;2.72;0.95;;;1.40;99.90;;;;;;6290923;22;20802;-87
2023/01/19 22:01:11;;;;;;;2.75;1.00;;;1.40;99.90;;;;;;6321527;22;20026;-93
2023/01/19 22:03:37;;;;;;;3.55;1.02;;;1.40;99.90;;;;;;6293632;22;20019;-87
2023/01/19 22:06:13;;;;;;;3.85;0.93;;;1.50;99.90;;;;;;6295277;22;20015;-89
2023/01/19 22:08:41;;;;;;;1.30;0.50;;;1.40;99.90;;;;;;6264356;22;20023;-87